sensor_id;sensor_type;location;lat;lon;timestamp;pressure;altitude;pressure_sealevel;temperature;humidity
55347;BME280;41218;55.700;38.270;2023-03-23T00:02:36;99639.09;;;2.11;67.29
55347;BME280;41218;55.700;38.270;2023-03-23T00:07:38;99640.50;;;2.09;67.04
55347;BME280;41218;55.700;38.270;2023-03-23T00:12:45;99662.53;;;2.21;67.13
55347;BME280;41218;55.700;38.270;2023-03-23T00:17:49;99668.47;;;2.23;67.00
55347;BME280;41218;55.700;38.270;2023-03-23T00:22:51;99662.06;;;2.28;67.03
55347;BME280;41218;55.700;38.270;2023-03-23T00:27:51;99661.28;;;2.27;67.24
55347;BME280;41218;55.700;38.270;2023-03-23T00:32:52;99655.78;;;2.18;67.46
55347;BME280;41218;55.700;38.270;2023-03-23T00:37:52;99655.47;;;2.20;67.59
55347;BME280;41218;55.700;38.270;2023-03-23T00:42:53;99636.19;;;2.16;67.40
55347;BME280;41218;55.700;38.270;2023-03-23T00:47:53;99626.25;;;2.20;67.60
55347;BME280;41218;55.700;38.270;2023-03-23T00:52:54;99623.72;;;2.24;67.65
55347;BME280;41218;55.700;38.270;2023-03-23T00:57:56;99638.81;;;2.30;67.97
55347;BME280;41218;55.700;38.270;2023-03-23T01:02:57;99626.13;;;2.26;67.48
55347;BME280;41218;55.700;38.270;2023-03-23T01:07:58;99622.94;;;2.32;67.79
55347;BME280;41218;55.700;38.270;2023-03-23T01:13:00;99629.66;;;2.35;68.15
55347;BME280;41218;55.700;38.270;2023-03-23T01:18:01;99622.31;;;2.35;67.91
55347;BME280;41218;55.700;38.270;2023-03-23T01:23:02;99617.47;;;2.32;67.89
55347;BME280;41218;55.700;38.270;2023-03-23T01:28:03;99599.03;;;2.29;68.13
55347;BME280;41218;55.700;38.270;2023-03-23T01:33:04;99616.03;;;2.35;67.65
55347;BME280;41218;55.700;38.270;2023-03-23T01:38:05;99605.94;;;2.35;68.08
55347;BME280;41218;55.700;38.270;2023-03-23T01:43:11;99609.94;;;2.38;68.33
55347;BME280;41218;55.700;38.270;2023-03-23T01:48:32;99601.94;;;2.42;68.47
55347;BME280;41218;55.700;38.270;2023-03-23T01:53:40;99586.84;;;2.35;68.31
55347;BME280;41218;55.700;38.270;2023-03-23T01:58:42;99595.03;;;2.44;68.21
55347;BME280;41218;55.700;38.270;2023-03-23T02:03:45;99602.56;;;2.47;68.29
55347;BME280;41218;55.700;38.270;2023-03-23T02:08:48;99596.00;;;2.48;68.56
55347;BME280;41218;55.700;38.270;2023-03-23T02:13:50;99598.06;;;2.51;68.51
55347;BME280;41218;55.700;38.270;2023-03-23T02:34:51;99591.69;;;2.56;68.70
55347;BME280;41218;55.700;38.270;2023-03-23T02:40:07;99585.09;;;2.57;68.82
55347;BME280;41218;55.700;38.270;2023-03-23T02:45:13;99581.88;;;2.55;68.70
55347;BME280;41218;55.700;38.270;2023-03-23T02:50:16;99579.16;;;2.64;69.01
55347;BME280;41218;55.700;38.270;2023-03-23T02:55:20;99572.56;;;2.65;68.76
55347;BME280;41218;55.700;38.270;2023-03-23T03:00:24;99570.16;;;2.63;68.99
55347;BME280;41218;55.700;38.270;2023-03-23T03:05:42;99582.19;;;2.71;68.62
55347;BME280;41218;55.700;38.270;2023-03-23T03:10:58;99571.47;;;2.66;69.21
55347;BME280;41218;55.700;38.270;2023-03-23T03:16:23;99573.06;;;2.67;69.03
55347;BME280;41218;55.700;38.270;2023-03-23T03:21:28;99574.34;;;2.69;68.74
55347;BME280;41218;55.700;38.270;2023-03-23T03:26:31;99572.75;;;2.68;68.65
55347;BME280;41218;55.700;38.270;2023-03-23T03:31:39;99577.72;;;2.66;69.08
55347;BME280;41218;55.700;38.270;2023-03-23T03:36:40;99567.44;;;2.63;68.73
55347;BME280;41218;55.700;38.270;2023-03-23T03:41:41;99567.13;;;2.65;68.85
55347;BME280;41218;55.700;38.270;2023-03-23T03:46:43;99560.53;;;2.57;68.78
55347;BME280;41218;55.700;38.270;2023-03-23T03:51:44;99570.16;;;2.63;68.63
55347;BME280;41218;55.700;38.270;2023-03-23T03:56:45;99559.06;;;2.59;69.05
55347;BME280;41218;55.700;38.270;2023-03-23T04:01:46;99566.31;;;2.64;68.92
55347;BME280;41218;55.700;38.270;2023-03-23T04:06:47;99547.38;;;2.59;68.85
55347;BME280;41218;55.700;38.270;2023-03-23T04:11:49;99550.91;;;2.68;68.92
55347;BME280;41218;55.700;38.270;2023-03-23T04:16:49;99543.03;;;2.67;68.80
55347;BME280;41218;55.700;38.270;2023-03-23T04:21:52;99546.72;;;2.71;69.00
55347;BME280;41218;55.700;38.270;2023-03-23T04:26:52;99548.47;;;2.75;69.25
55347;BME280;41218;55.700;38.270;2023-03-23T04:31:54;99553.63;;;2.77;68.90
55347;BME280;41218;55.700;38.270;2023-03-23T04:36:56;99529.38;;;2.75;69.30
55347;BME280;41218;55.700;38.270;2023-03-23T04:41:58;99551.19;;;2.93;69.21
55347;BME280;41218;55.700;38.270;2023-03-23T04:47:01;99551.84;;;2.98;69.53
55347;BME280;41218;55.700;38.270;2023-03-23T04:52:02;99528.84;;;2.99;69.21
55347;BME280;41218;55.700;38.270;2023-03-23T04:57:03;99537.81;;;3.17;69.31
55347;BME280;41218;55.700;38.270;2023-03-23T05:02:03;99539.72;;;3.26;69.55
55347;BME280;41218;55.700;38.270;2023-03-23T05:07:04;99519.47;;;3.27;69.14
55347;BME280;41218;55.700;38.270;2023-03-23T05:12:06;99532.06;;;3.49;69.18
55347;BME280;41218;55.700;38.270;2023-03-23T05:17:07;99533.00;;;3.61;68.98
55347;BME280;41218;55.700;38.270;2023-03-23T05:22:09;99532.31;;;3.73;69.51
55347;BME280;41218;55.700;38.270;2023-03-23T05:27:10;99526.94;;;3.86;69.05
55347;BME280;41218;55.700;38.270;2023-03-23T05:32:11;99526.50;;;4.05;69.18
55347;BME280;41218;55.700;38.270;2023-03-23T05:37:12;99533.31;;;4.19;69.08
55347;BME280;41218;55.700;38.270;2023-03-23T05:42:13;99531.56;;;4.36;68.86
55347;BME280;41218;55.700;38.270;2023-03-23T05:47:14;99523.09;;;4.50;68.81
55347;BME280;41218;55.700;38.270;2023-03-23T05:52:14;99524.91;;;4.67;68.29
55347;BME280;41218;55.700;38.270;2023-03-23T05:57:15;99490.84;;;4.55;68.57
55347;BME280;41218;55.700;38.270;2023-03-23T06:02:16;99503.56;;;4.72;68.80
55347;BME280;41218;55.700;38.270;2023-03-23T06:07:17;99546.84;;;5.12;67.92
55347;BME280;41218;55.700;38.270;2023-03-23T06:12:18;99541.53;;;5.28;68.26
55347;BME280;41218;55.700;38.270;2023-03-23T06:17:20;99519.28;;;5.30;67.69
55347;BME280;41218;55.700;38.270;2023-03-23T06:22:21;99536.09;;;5.53;67.59
55347;BME280;41218;55.700;38.270;2023-03-23T06:27:21;99537.00;;;5.69;67.14
55347;BME280;41218;55.700;38.270;2023-03-23T06:32:24;99535.75;;;5.79;67.04
55347;BME280;41218;55.700;38.270;2023-03-23T06:37:25;99512.78;;;5.83;66.90
55347;BME280;41218;55.700;38.270;2023-03-23T06:42:26;99521.47;;;5.98;67.03
55347;BME280;41218;55.700;38.270;2023-03-23T06:47:27;99540.56;;;6.19;66.74
55347;BME280;41218;55.700;38.270;2023-03-23T06:52:30;99534.03;;;6.24;66.23
55347;BME280;41218;55.700;38.270;2023-03-23T06:57:31;99522.22;;;6.35;66.19
55347;BME280;41218;55.700;38.270;2023-03-23T07:02:32;99526.97;;;6.51;65.98
55347;BME280;41218;55.700;38.270;2023-03-23T07:07:33;99523.16;;;6.68;65.55
55347;BME280;41218;55.700;38.270;2023-03-23T07:12:34;99516.63;;;6.72;65.24
55347;BME280;41218;55.700;38.270;2023-03-23T07:17:37;99497.72;;;6.71;65.00
55347;BME280;41218;55.700;38.270;2023-03-23T07:22:37;99484.75;;;6.84;64.79
55347;BME280;41218;55.700;38.270;2023-03-23T07:27:38;99448.94;;;6.80;64.26
55347;BME280;41218;55.700;38.270;2023-03-23T07:32:39;99479.66;;;7.14;64.27
55347;BME280;41218;55.700;38.270;2023-03-23T07:37:39;99478.41;;;7.27;64.28
55347;BME280;41218;55.700;38.270;2023-03-23T07:42:41;99489.78;;;7.57;63.70
55347;BME280;41218;55.700;38.270;2023-03-23T07:47:43;99433.34;;;7.32;63.27
55347;BME280;41218;55.700;38.270;2023-03-23T07:52:43;99452.44;;;7.56;62.39
55347;BME280;41218;55.700;38.270;2023-03-23T07:57:48;99427.31;;;7.58;62.15
55347;BME280;41218;55.700;38.270;2023-03-23T08:02:56;99436.50;;;7.81;61.05
55347;BME280;41218;55.700;38.270;2023-03-23T08:07:57;99442.75;;;7.98;61.43
55347;BME280;41218;55.700;38.270;2023-03-23T08:12:58;99438.91;;;8.02;61.08
55347;BME280;41218;55.700;38.270;2023-03-23T08:18:00;99445.44;;;8.14;60.47
55347;BME280;41218;55.700;38.270;2023-03-23T08:23:01;99416.97;;;8.06;60.62
55347;BME280;41218;55.700;38.270;2023-03-23T08:28:03;99416.69;;;8.11;60.03
55347;BME280;41218;55.700;38.270;2023-03-23T08:33:04;99445.91;;;8.35;59.69
55347;BME280;41218;55.700;38.270;2023-03-23T08:38:05;99428.44;;;8.28;59.29
55347;BME280;41218;55.700;38.270;2023-03-23T08:43:06;99451.00;;;8.53;59.22
55347;BME280;41218;55.700;38.270;2023-03-23T08:48:07;99458.81;;;8.70;58.87
55347;BME280;41218;55.700;38.270;2023-03-23T08:53:07;99421.19;;;8.58;58.59
55347;BME280;41218;55.700;38.270;2023-03-23T08:58:08;99431.78;;;8.76;58.45
55347;BME280;41218;55.700;38.270;2023-03-23T09:03:09;99416.75;;;8.73;58.15
55347;BME280;41218;55.700;38.270;2023-03-23T09:08:10;99400.13;;;8.70;57.97
55347;BME280;41218;55.700;38.270;2023-03-23T09:13:12;99379.44;;;8.79;57.79
55347;BME280;41218;55.700;38.270;2023-03-23T09:18:13;99389.81;;;8.86;57.26
55347;BME280;41218;55.700;38.270;2023-03-23T09:23:14;99359.13;;;8.88;56.78
55347;BME280;41218;55.700;38.270;2023-03-23T09:28:15;99351.34;;;8.93;56.73
55347;BME280;41218;55.700;38.270;2023-03-23T09:33:16;99372.66;;;9.19;56.28
55347;BME280;41218;55.700;38.270;2023-03-23T09:38:16;99373.50;;;9.23;56.11
55347;BME280;41218;55.700;38.270;2023-03-23T09:43:46;99380.84;;;9.39;55.05
55347;BME280;41218;55.700;38.270;2023-03-23T09:48:55;99360.50;;;9.24;54.28
55347;BME280;41218;55.700;38.270;2023-03-23T09:54:04;99343.03;;;9.16;54.92
55347;BME280;41218;55.700;38.270;2023-03-23T09:59:14;99326.03;;;9.11;54.04
55347;BME280;41218;55.700;38.270;2023-03-23T13:06:05;99219.88;;;9.58;53.57
55347;BME280;41218;55.700;38.270;2023-03-23T13:11:11;99244.91;;;10.10;54.55
55347;BME280;41218;55.700;38.270;2023-03-23T13:16:22;99207.91;;;9.80;53.02
55347;BME280;41218;55.700;38.270;2023-03-23T13:21:37;99198.09;;;9.83;52.73
55347;BME280;41218;55.700;38.270;2023-03-23T13:26:42;99193.38;;;9.83;53.54
55347;BME280;41218;55.700;38.270;2023-03-23T13:31:43;99177.19;;;9.82;53.65
55347;BME280;41218;55.700;38.270;2023-03-23T13:36:55;99200.25;;;10.00;52.71
55347;BME280;41218;55.700;38.270;2023-03-23T13:52:36;99209.06;;;10.17;52.59
55347;BME280;41218;55.700;38.270;2023-03-23T14:03:09;99216.19;;;10.18;53.23
55347;BME280;41218;55.700;38.270;2023-03-23T14:08:55;99186.34;;;9.90;52.82
55347;BME280;41218;55.700;38.270;2023-03-23T14:14:07;99224.00;;;10.09;51.86
55347;BME280;41218;55.700;38.270;2023-03-23T14:19:27;99158.13;;;9.70;52.69
55347;BME280;41218;55.700;38.270;2023-03-23T14:24:33;99176.69;;;9.73;53.03
55347;BME280;41218;55.700;38.270;2023-03-23T14:29:39;99174.31;;;9.71;52.89
55347;BME280;41218;55.700;38.270;2023-03-23T14:34:40;99150.38;;;9.45;53.38
55347;BME280;41218;55.700;38.270;2023-03-23T14:39:47;99167.00;;;9.52;53.03
55347;BME280;41218;55.700;38.270;2023-03-23T14:44:50;99158.19;;;9.39;53.33
55347;BME280;41218;55.700;38.270;2023-03-23T14:49:56;99145.81;;;9.26;53.28
55347;BME280;41218;55.700;38.270;2023-03-23T14:55:12;99156.81;;;9.22;53.36
55347;BME280;41218;55.700;38.270;2023-03-23T15:00:21;99149.91;;;9.06;53.75
55347;BME280;41218;55.700;38.270;2023-03-23T15:05:27;99173.09;;;9.01;53.97
55347;BME280;41218;55.700;38.270;2023-03-23T15:10:29;99172.19;;;8.93;54.40
55347;BME280;41218;55.700;38.270;2023-03-23T15:15:35;99179.66;;;8.93;54.19
55347;BME280;41218;55.700;38.270;2023-03-23T15:25:51;99163.66;;;8.75;54.43
55347;BME280;41218;55.700;38.270;2023-03-23T15:30:54;99164.66;;;8.63;54.88
55347;BME280;41218;55.700;38.270;2023-03-23T15:35:56;99127.50;;;8.27;54.82
55347;BME280;41218;55.700;38.270;2023-03-23T15:41:00;99136.59;;;8.31;54.72
55347;BME280;41218;55.700;38.270;2023-03-23T15:46:03;99172.00;;;8.52;55.16
55347;BME280;41218;55.700;38.270;2023-03-23T15:51:04;99119.75;;;8.10;55.22
55347;BME280;41218;55.700;38.270;2023-03-23T15:56:07;99142.31;;;8.19;55.14
55347;BME280;41218;55.700;38.270;2023-03-23T16:06:18;99125.03;;;7.95;55.38
55347;BME280;41218;55.700;38.270;2023-03-23T16:11:19;99154.34;;;8.07;55.57
55347;BME280;41218;55.700;38.270;2023-03-23T16:16:22;99117.41;;;7.85;56.01
55347;BME280;41218;55.700;38.270;2023-03-23T16:21:24;99133.22;;;7.92;55.95
55347;BME280;41218;55.700;38.270;2023-03-23T16:26:25;99117.69;;;7.80;55.90
55347;BME280;41218;55.700;38.270;2023-03-23T16:31:25;99095.31;;;7.58;56.20
55347;BME280;41218;55.700;38.270;2023-03-23T16:36:26;99105.91;;;7.56;56.20
55347;BME280;41218;55.700;38.270;2023-03-23T16:41:27;99118.41;;;7.54;56.46
55347;BME280;41218;55.700;38.270;2023-03-23T16:46:27;99106.94;;;7.48;56.80
55347;BME280;41218;55.700;38.270;2023-03-23T16:51:28;99098.47;;;7.37;56.50
55347;BME280;41218;55.700;38.270;2023-03-23T16:56:29;99118.78;;;7.52;56.75
55347;BME280;41218;55.700;38.270;2023-03-23T17:01:30;99127.75;;;7.49;56.97
55347;BME280;41218;55.700;38.270;2023-03-23T17:06:30;99084.59;;;7.30;56.81
55347;BME280;41218;55.700;38.270;2023-03-23T17:11:31;99103.59;;;7.39;57.01
55347;BME280;41218;55.700;38.270;2023-03-23T17:16:32;99092.53;;;7.35;56.72
55347;BME280;41218;55.700;38.270;2023-03-23T17:21:32;99075.84;;;7.25;57.11
55347;BME280;41218;55.700;38.270;2023-03-23T17:26:33;99081.00;;;7.26;57.04
55347;BME280;41218;55.700;38.270;2023-03-23T17:31:34;99083.34;;;7.28;57.53
55347;BME280;41218;55.700;38.270;2023-03-23T17:36:35;99108.16;;;7.51;57.22
55347;BME280;41218;55.700;38.270;2023-03-23T17:41:36;99075.19;;;7.31;57.14
55347;BME280;41218;55.700;38.270;2023-03-23T17:46:36;99078.00;;;7.35;57.66
55347;BME280;41218;55.700;38.270;2023-03-23T17:51:37;99032.38;;;7.11;57.56
55347;BME280;41218;55.700;38.270;2023-03-23T17:56:37;99075.19;;;7.31;57.53
55347;BME280;41218;55.700;38.270;2023-03-23T18:01:38;99065.22;;;7.23;57.66
55347;BME280;41218;55.700;38.270;2023-03-23T18:06:38;99072.75;;;7.26;57.39
55347;BME280;41218;55.700;38.270;2023-03-23T18:11:39;99048.16;;;7.14;57.80
55347;BME280;41218;55.700;38.270;2023-03-23T18:16:40;99052.13;;;7.16;57.49
55347;BME280;41218;55.700;38.270;2023-03-23T18:21:41;99013.84;;;6.85;58.16
55347;BME280;41218;55.700;38.270;2023-03-23T18:26:42;99024.13;;;6.88;57.62
55347;BME280;41218;55.700;38.270;2023-03-23T18:31:42;99039.19;;;6.97;58.10
55347;BME280;41218;55.700;38.270;2023-03-23T18:36:43;99023.25;;;6.84;58.42
55347;BME280;41218;55.700;38.270;2023-03-23T18:41:45;98985.03;;;6.55;58.59
55347;BME280;41218;55.700;38.270;2023-03-23T18:46:45;99007.50;;;6.61;58.88
55347;BME280;41218;55.700;38.270;2023-03-23T18:51:46;98995.56;;;6.53;58.95
55347;BME280;41218;55.700;38.270;2023-03-23T18:56:47;99016.88;;;6.60;59.26
55347;BME280;41218;55.700;38.270;2023-03-23T19:01:49;98988.78;;;6.47;59.25
55347;BME280;41218;55.700;38.270;2023-03-23T19:06:51;98983.13;;;6.40;59.29
55347;BME280;41218;55.700;38.270;2023-03-23T19:11:52;98987.91;;;6.43;59.37
55347;BME280;41218;55.700;38.270;2023-03-23T19:16:52;98978.66;;;6.32;59.82
55347;BME280;41218;55.700;38.270;2023-03-23T19:21:53;98988.28;;;6.41;59.63
55347;BME280;41218;55.700;38.270;2023-03-23T19:26:54;98995.28;;;6.39;60.12
55347;BME280;41218;55.700;38.270;2023-03-23T19:31:57;98968.25;;;6.21;59.92
55347;BME280;41218;55.700;38.270;2023-03-23T19:37:00;98978.13;;;6.26;59.66
55347;BME280;41218;55.700;38.270;2023-03-23T19:42:01;98975.69;;;6.21;60.49
55347;BME280;41218;55.700;38.270;2023-03-23T19:47:02;98942.81;;;6.05;60.01
55347;BME280;41218;55.700;38.270;2023-03-23T19:52:04;98918.81;;;6.02;60.77
55347;BME280;41218;55.700;38.270;2023-03-23T19:57:05;98934.66;;;6.09;61.00
55347;BME280;41218;55.700;38.270;2023-03-23T20:02:11;98923.81;;;5.96;61.06
55347;BME280;41218;55.700;38.270;2023-03-23T20:07:12;98921.13;;;6.00;60.87
55347;BME280;41218;55.700;38.270;2023-03-23T20:12:15;98917.53;;;5.96;61.25
55347;BME280;41218;55.700;38.270;2023-03-23T20:17:16;98922.75;;;6.01;61.39
55347;BME280;41218;55.700;38.270;2023-03-23T20:22:17;98912.03;;;5.96;61.53
55347;BME280;41218;55.700;38.270;2023-03-23T20:27:25;98885.53;;;5.84;61.38
55347;BME280;41218;55.700;38.270;2023-03-23T20:32:29;98907.41;;;6.00;61.87
55347;BME280;41218;55.700;38.270;2023-03-23T20:37:35;98882.72;;;5.80;61.96
55347;BME280;41218;55.700;38.270;2023-03-23T20:42:40;98881.09;;;5.79;62.10
55347;BME280;41218;55.700;38.270;2023-03-23T20:47:43;98912.78;;;6.12;61.79
55347;BME280;41218;55.700;38.270;2023-03-23T20:52:43;98863.16;;;5.82;61.93
55347;BME280;41218;55.700;38.270;2023-03-23T20:57:44;98861.75;;;5.92;62.36
55347;BME280;41218;55.700;38.270;2023-03-23T21:02:45;98862.94;;;5.91;62.48
55347;BME280;41218;55.700;38.270;2023-03-23T21:07:48;98881.06;;;5.95;62.34
55347;BME280;41218;55.700;38.270;2023-03-23T21:12:50;98908.09;;;6.13;62.32
55347;BME280;41218;55.700;38.270;2023-03-23T21:17:50;98848.94;;;5.76;62.12
55347;BME280;41218;55.700;38.270;2023-03-23T21:22:54;98871.53;;;5.89;62.62
55347;BME280;41218;55.700;38.270;2023-03-23T21:27:57;98868.25;;;5.83;62.83
55347;BME280;41218;55.700;38.270;2023-03-23T21:32:58;98846.28;;;5.80;62.87
55347;BME280;41218;55.700;38.270;2023-03-23T21:38:01;98847.91;;;5.85;62.91
55347;BME280;41218;55.700;38.270;2023-03-23T21:43:04;98827.94;;;5.84;62.85
55347;BME280;41218;55.700;38.270;2023-03-23T21:48:05;98832.13;;;5.97;63.21
55347;BME280;41218;55.700;38.270;2023-03-23T21:53:05;98811.38;;;5.96;63.19
55347;BME280;41218;55.700;38.270;2023-03-23T21:58:06;98801.97;;;5.97;63.08
55347;BME280;41218;55.700;38.270;2023-03-23T22:03:11;98803.41;;;6.11;63.05
55347;BME280;41218;55.700;38.270;2023-03-23T22:08:15;98786.28;;;5.98;63.51
55347;BME280;41218;55.700;38.270;2023-03-23T22:13:16;98806.66;;;6.16;63.67
55347;BME280;41218;55.700;38.270;2023-03-23T22:18:19;98766.03;;;6.03;63.39
55347;BME280;41218;55.700;38.270;2023-03-23T22:23:20;98757.78;;;6.03;63.74
55347;BME280;41218;55.700;38.270;2023-03-23T22:28:22;98753.53;;;6.05;63.67
55347;BME280;41218;55.700;38.270;2023-03-23T22:33:27;98773.06;;;6.23;63.91
55347;BME280;41218;55.700;38.270;2023-03-23T22:38:30;98753.78;;;6.19;63.95
55347;BME280;41218;55.700;38.270;2023-03-23T22:43:37;98770.44;;;6.30;64.07
55347;BME280;41218;55.700;38.270;2023-03-23T22:48:37;98751.09;;;6.23;63.64
55347;BME280;41218;55.700;38.270;2023-03-23T22:53:38;98782.56;;;6.52;64.02
55347;BME280;41218;55.700;38.270;2023-03-23T22:58:39;98744.22;;;6.33;64.06
55347;BME280;41218;55.700;38.270;2023-03-23T23:03:40;98716.97;;;6.20;63.98
55347;BME280;41218;55.700;38.270;2023-03-23T23:08:45;98713.41;;;6.20;64.39
55347;BME280;41218;55.700;38.270;2023-03-23T23:13:46;98720.59;;;6.28;64.70
55347;BME280;41218;55.700;38.270;2023-03-23T23:18:47;98730.25;;;6.41;64.67
55347;BME280;41218;55.700;38.270;2023-03-23T23:23:48;98689.09;;;6.18;64.72
55347;BME280;41218;55.700;38.270;2023-03-23T23:28:51;98686.38;;;6.22;64.75
55347;BME280;41218;55.700;38.270;2023-03-23T23:33:56;98659.63;;;6.15;64.86
55347;BME280;41218;55.700;38.270;2023-03-23T23:39:03;98665.13;;;6.15;65.14
55347;BME280;41218;55.700;38.270;2023-03-23T23:44:11;98664.75;;;6.17;64.74
55347;BME280;41218;55.700;38.270;2023-03-23T23:49:11;98662.53;;;6.26;64.62
55347;BME280;41218;55.700;38.270;2023-03-23T23:54:15;98637.75;;;6.19;64.77
55347;BME280;41218;55.700;38.270;2023-03-23T23:59:22;98655.16;;;6.30;65.12
